sensor_id;sensor_type;location;lat;lon;timestamp;pressure;altitude;pressure_sealevel;temperature;humidity
55460;BME280;41326;45.302;-122.946;2023-05-02T00:00:33;100318.21;;;17.65;54.72
55460;BME280;41326;45.302;-122.946;2023-05-02T00:03:03;100315.63;;;17.65;54.69
55460;BME280;41326;45.302;-122.946;2023-05-02T00:05:33;100316.04;;;17.65;54.65
55460;BME280;41326;45.302;-122.946;2023-05-02T00:08:03;100317.66;;;17.66;54.62
55460;BME280;41326;45.302;-122.946;2023-05-02T00:10:34;100315.34;;;17.65;54.60
55460;BME280;41326;45.302;-122.946;2023-05-02T00:13:04;100321.54;;;17.68;54.49
55460;BME280;41326;45.302;-122.946;2023-05-02T00:15:34;100330.93;;;17.68;54.54
55460;BME280;41326;45.302;-122.946;2023-05-02T00:18:05;100334.81;;;17.72;54.46
55460;BME280;41326;45.302;-122.946;2023-05-02T00:20:35;100336.27;;;17.67;54.64
55460;BME280;41326;45.302;-122.946;2023-05-02T00:23:05;100337.21;;;17.68;54.59
55460;BME280;41326;45.302;-122.946;2023-05-02T00:25:35;100334.52;;;17.67;54.65
55460;BME280;41326;45.302;-122.946;2023-05-02T00:28:06;100326.54;;;17.70;54.59
55460;BME280;41326;45.302;-122.946;2023-05-02T00:30:36;100320.14;;;17.65;54.76
55460;BME280;41326;45.302;-122.946;2023-05-02T00:33:07;100321.13;;;17.70;54.67
55460;BME280;41326;45.302;-122.946;2023-05-02T00:35:38;100319.17;;;17.68;54.76
55460;BME280;41326;45.302;-122.946;2023-05-02T00:38:08;100316.20;;;17.69;54.84
55460;BME280;41326;45.302;-122.946;2023-05-02T00:40:43;100317.46;;;17.68;54.82
55460;BME280;41326;45.302;-122.946;2023-05-02T00:43:08;100310.87;;;17.64;54.93
55460;BME280;41326;45.302;-122.946;2023-05-02T00:45:38;100308.11;;;17.61;55.08
55460;BME280;41326;45.302;-122.946;2023-05-02T00:48:09;100309.98;;;17.62;55.30
55460;BME280;41326;45.302;-122.946;2023-05-02T00:50:41;100315.62;;;17.66;55.44
55460;BME280;41326;45.302;-122.946;2023-05-02T00:53:09;100312.57;;;17.69;55.54
55460;BME280;41326;45.302;-122.946;2023-05-02T00:55:40;100309.33;;;17.66;55.96
55460;BME280;41326;45.302;-122.946;2023-05-02T00:58:12;100302.34;;;17.72;56.03
55460;BME280;41326;45.302;-122.946;2023-05-02T01:00:54;100300.81;;;17.69;56.56
55460;BME280;41326;45.302;-122.946;2023-05-02T01:03:16;100305.42;;;17.73;56.65
55460;BME280;41326;45.302;-122.946;2023-05-02T01:05:45;100305.80;;;17.73;57.10
55460;BME280;41326;45.302;-122.946;2023-05-02T01:08:17;100296.59;;;17.78;57.25
55460;BME280;41326;45.302;-122.946;2023-05-02T01:10:48;100291.44;;;17.78;57.54
55460;BME280;41326;45.302;-122.946;2023-05-02T01:13:16;100290.90;;;17.79;57.81
55460;BME280;41326;45.302;-122.946;2023-05-02T01:15:43;100291.28;;;17.75;58.56
55460;BME280;41326;45.302;-122.946;2023-05-02T01:18:13;100294.36;;;17.80;58.31
55460;BME280;41326;45.302;-122.946;2023-05-02T01:20:45;100301.20;;;17.79;58.18
55460;BME280;41326;45.302;-122.946;2023-05-02T01:23:23;100303.63;;;17.79;58.04
55460;BME280;41326;45.302;-122.946;2023-05-02T01:25:55;100308.39;;;17.81;57.95
55460;BME280;41326;45.302;-122.946;2023-05-02T01:28:24;100318.09;;;17.79;58.23
55460;BME280;41326;45.302;-122.946;2023-05-02T01:30:46;100317.22;;;17.76;58.39
55460;BME280;41326;45.302;-122.946;2023-05-02T01:33:16;100317.64;;;17.74;58.67
55460;BME280;41326;45.302;-122.946;2023-05-02T01:35:45;100319.87;;;17.80;58.70
55460;BME280;41326;45.302;-122.946;2023-05-02T01:38:19;100322.26;;;17.82;58.97
55460;BME280;41326;45.302;-122.946;2023-05-02T01:40:46;100320.85;;;17.82;59.44
55460;BME280;41326;45.302;-122.946;2023-05-02T01:43:16;100316.86;;;17.80;60.22
55460;BME280;41326;45.302;-122.946;2023-05-02T01:45:46;100315.62;;;17.78;59.93
55460;BME280;41326;45.302;-122.946;2023-05-02T01:48:15;100312.38;;;17.77;58.81
55460;BME280;41326;45.302;-122.946;2023-05-02T01:50:47;100310.26;;;17.69;58.21
55460;BME280;41326;45.302;-122.946;2023-05-02T01:53:17;100317.88;;;17.66;57.74
55460;BME280;41326;45.302;-122.946;2023-05-02T01:55:49;100320.84;;;17.59;57.21
55460;BME280;41326;45.302;-122.946;2023-05-02T01:58:17;100325.06;;;17.55;57.52
55460;BME280;41326;45.302;-122.946;2023-05-02T02:00:48;100325.98;;;17.63;57.65
55460;BME280;41326;45.302;-122.946;2023-05-02T02:03:18;100326.77;;;17.63;58.04
55460;BME280;41326;45.302;-122.946;2023-05-02T02:05:48;100318.60;;;17.65;57.80
55460;BME280;41326;45.302;-122.946;2023-05-02T02:08:18;100319.03;;;17.63;57.44
55460;BME280;41326;45.302;-122.946;2023-05-02T02:10:51;100314.51;;;17.71;56.88
55460;BME280;41326;45.302;-122.946;2023-05-02T02:13:24;100307.89;;;17.73;56.31
55460;BME280;41326;45.302;-122.946;2023-05-02T02:15:52;100304.74;;;17.75;56.02
55460;BME280;41326;45.302;-122.946;2023-05-02T02:18:24;100299.23;;;17.79;55.89
55460;BME280;41326;45.302;-122.946;2023-05-02T02:20:50;100299.68;;;17.70;56.07
55460;BME280;41326;45.302;-122.946;2023-05-02T02:23:21;100298.04;;;17.62;56.07
55460;BME280;41326;45.302;-122.946;2023-05-02T02:25:51;100294.61;;;17.59;57.11
55460;BME280;41326;45.302;-122.946;2023-05-02T02:28:20;100288.80;;;17.64;57.82
55460;BME280;41326;45.302;-122.946;2023-05-02T02:30:51;100290.60;;;17.69;58.13
55460;BME280;41326;45.302;-122.946;2023-05-02T02:33:21;100299.33;;;17.67;58.78
55460;BME280;41326;45.302;-122.946;2023-05-02T02:35:56;100296.51;;;17.73;58.68
55460;BME280;41326;45.302;-122.946;2023-05-02T02:38:27;100302.30;;;17.81;58.50
55460;BME280;41326;45.302;-122.946;2023-05-02T02:40:59;100300.23;;;17.80;58.61
55460;BME280;41326;45.302;-122.946;2023-05-02T02:43:26;100298.98;;;17.79;58.54
55460;BME280;41326;45.302;-122.946;2023-05-02T02:46:01;100295.43;;;17.78;58.54
55460;BME280;41326;45.302;-122.946;2023-05-02T02:48:27;100298.99;;;17.79;58.48
55460;BME280;41326;45.302;-122.946;2023-05-02T02:51:02;100308.21;;;17.79;58.45
55460;BME280;41326;45.302;-122.946;2023-05-02T02:53:26;100308.76;;;17.81;58.35
55460;BME280;41326;45.302;-122.946;2023-05-02T02:55:59;100307.20;;;17.81;58.27
55460;BME280;41326;45.302;-122.946;2023-05-02T02:58:33;100297.34;;;17.78;58.28
55460;BME280;41326;45.302;-122.946;2023-05-02T03:00:56;100295.75;;;17.76;58.29
55460;BME280;41326;45.302;-122.946;2023-05-02T03:03:27;100315.87;;;17.75;58.36
55460;BME280;41326;45.302;-122.946;2023-05-02T03:05:56;100333.59;;;17.79;58.21
55460;BME280;41326;45.302;-122.946;2023-05-02T03:08:26;100327.08;;;17.78;58.25
55460;BME280;41326;45.302;-122.946;2023-05-02T03:10:56;100292.42;;;17.75;58.38
55460;BME280;41326;45.302;-122.946;2023-05-02T03:13:26;100289.33;;;17.76;58.39
55460;BME280;41326;45.302;-122.946;2023-05-02T03:16:11;100322.34;;;17.69;58.68
55460;BME280;41326;45.302;-122.946;2023-05-02T03:18:28;100338.42;;;17.74;58.53
55460;BME280;41326;45.302;-122.946;2023-05-02T03:20:58;100329.84;;;17.71;58.66
55460;BME280;41326;45.302;-122.946;2023-05-02T03:23:28;100326.52;;;17.72;58.59
55460;BME280;41326;45.302;-122.946;2023-05-02T03:25:58;100328.96;;;17.72;58.60
55460;BME280;41326;45.302;-122.946;2023-05-02T03:28:28;100337.10;;;17.75;58.50
55460;BME280;41326;45.302;-122.946;2023-05-02T03:30:59;100343.40;;;17.74;58.52
55460;BME280;41326;45.302;-122.946;2023-05-02T03:33:30;100355.41;;;17.78;58.41
55460;BME280;41326;45.302;-122.946;2023-05-02T03:36:00;100363.72;;;17.70;58.59
55460;BME280;41326;45.302;-122.946;2023-05-02T03:38:31;100363.90;;;17.74;58.43
55460;BME280;41326;45.302;-122.946;2023-05-02T03:41:01;100363.47;;;17.69;58.65
55460;BME280;41326;45.302;-122.946;2023-05-02T03:43:31;100368.68;;;17.65;58.87
55460;BME280;41326;45.302;-122.946;2023-05-02T03:46:05;100367.11;;;17.68;58.79
55460;BME280;41326;45.302;-122.946;2023-05-02T03:48:31;100359.55;;;17.69;58.77
55460;BME280;41326;45.302;-122.946;2023-05-02T03:51:03;100351.43;;;17.65;58.93
55460;BME280;41326;45.302;-122.946;2023-05-02T03:53:33;100347.64;;;17.66;58.92
55460;BME280;41326;45.302;-122.946;2023-05-02T03:56:03;100342.81;;;17.68;58.79
55460;BME280;41326;45.302;-122.946;2023-05-02T03:58:33;100339.09;;;17.69;58.76
55460;BME280;41326;45.302;-122.946;2023-05-02T04:01:07;100347.23;;;17.68;58.76
55460;BME280;41326;45.302;-122.946;2023-05-02T04:03:34;100353.14;;;17.68;58.69
55460;BME280;41326;45.302;-122.946;2023-05-02T04:06:04;100352.03;;;17.65;58.80
55460;BME280;41326;45.302;-122.946;2023-05-02T04:08:35;100347.88;;;17.67;58.68
55460;BME280;41326;45.302;-122.946;2023-05-02T04:11:06;100335.22;;;17.65;58.71
55460;BME280;41326;45.302;-122.946;2023-05-02T04:13:36;100323.62;;;17.67;58.64
55460;BME280;41326;45.302;-122.946;2023-05-02T04:16:07;100319.43;;;17.66;58.64
55460;BME280;41326;45.302;-122.946;2023-05-02T04:18:36;100317.47;;;17.69;58.56
55460;BME280;41326;45.302;-122.946;2023-05-02T04:21:07;100322.47;;;17.61;58.84
55460;BME280;41326;45.302;-122.946;2023-05-02T04:23:38;100325.60;;;17.62;58.79
55460;BME280;41326;45.302;-122.946;2023-05-02T04:26:07;100330.49;;;17.61;58.86
55460;BME280;41326;45.302;-122.946;2023-05-02T04:28:38;100344.84;;;17.59;58.90
55460;BME280;41326;45.302;-122.946;2023-05-02T04:31:08;100350.25;;;17.62;58.80
55460;BME280;41326;45.302;-122.946;2023-05-02T04:33:38;100345.03;;;17.64;58.74
55460;BME280;41326;45.302;-122.946;2023-05-02T04:36:09;100336.41;;;17.61;58.80
55460;BME280;41326;45.302;-122.946;2023-05-02T04:38:39;100337.58;;;17.61;58.78
55460;BME280;41326;45.302;-122.946;2023-05-02T04:41:09;100346.25;;;17.61;58.84
55460;BME280;41326;45.302;-122.946;2023-05-02T04:43:39;100350.48;;;17.59;58.89
55460;BME280;41326;45.302;-122.946;2023-05-02T04:46:10;100356.51;;;17.59;58.89
55460;BME280;41326;45.302;-122.946;2023-05-02T04:48:40;100368.52;;;17.59;58.86
55460;BME280;41326;45.302;-122.946;2023-05-02T04:51:11;100370.17;;;17.60;58.85
55460;BME280;41326;45.302;-122.946;2023-05-02T04:53:42;100370.05;;;17.59;58.85
55460;BME280;41326;45.302;-122.946;2023-05-02T04:56:11;100358.69;;;17.61;58.74
55460;BME280;41326;45.302;-122.946;2023-05-02T04:58:41;100360.41;;;17.60;58.72
55460;BME280;41326;45.302;-122.946;2023-05-02T05:01:11;100372.16;;;17.63;58.61
55460;BME280;41326;45.302;-122.946;2023-05-02T05:03:42;100398.87;;;17.62;58.63
55460;BME280;41326;45.302;-122.946;2023-05-02T05:06:12;100410.60;;;17.62;58.61
55460;BME280;41326;45.302;-122.946;2023-05-02T05:08:43;100408.26;;;17.63;58.54
55460;BME280;41326;45.302;-122.946;2023-05-02T05:11:13;100410.04;;;17.64;58.51
55460;BME280;41326;45.302;-122.946;2023-05-02T05:13:44;100417.01;;;17.62;58.54
55460;BME280;41326;45.302;-122.946;2023-05-02T05:16:14;100423.51;;;17.61;58.52
55460;BME280;41326;45.302;-122.946;2023-05-02T05:18:45;100434.64;;;17.63;58.49
55460;BME280;41326;45.302;-122.946;2023-05-02T05:21:15;100439.02;;;17.65;58.43
55460;BME280;41326;45.302;-122.946;2023-05-02T05:23:46;100437.77;;;17.58;58.62
55460;BME280;41326;45.302;-122.946;2023-05-02T05:26:17;100441.29;;;17.55;58.72
55460;BME280;41326;45.302;-122.946;2023-05-02T05:28:47;100444.85;;;17.58;58.63
55460;BME280;41326;45.302;-122.946;2023-05-02T05:31:18;100452.81;;;17.57;58.64
55460;BME280;41326;45.302;-122.946;2023-05-02T05:33:48;100458.86;;;17.54;58.76
55460;BME280;41326;45.302;-122.946;2023-05-02T05:36:19;100460.08;;;17.52;58.77
55460;BME280;41326;45.302;-122.946;2023-05-02T05:38:49;100461.97;;;17.55;58.67
55460;BME280;41326;45.302;-122.946;2023-05-02T05:41:21;100458.88;;;17.53;58.78
55460;BME280;41326;45.302;-122.946;2023-05-02T05:43:50;100453.71;;;17.53;58.76
55460;BME280;41326;45.302;-122.946;2023-05-02T05:46:20;100449.61;;;17.48;58.96
55460;BME280;41326;45.302;-122.946;2023-05-02T05:48:51;100439.89;;;17.49;58.88
55460;BME280;41326;45.302;-122.946;2023-05-02T05:51:21;100427.79;;;17.46;58.97
55460;BME280;41326;45.302;-122.946;2023-05-02T05:53:51;100418.34;;;17.49;58.91
55460;BME280;41326;45.302;-122.946;2023-05-02T05:56:22;100413.15;;;17.49;58.93
55460;BME280;41326;45.302;-122.946;2023-05-02T05:58:52;100396.14;;;17.50;58.92
55460;BME280;41326;45.302;-122.946;2023-05-02T06:01:22;100372.19;;;17.47;59.06
55460;BME280;41326;45.302;-122.946;2023-05-02T06:03:53;100338.94;;;17.45;59.25
55460;BME280;41326;45.302;-122.946;2023-05-02T06:06:23;100321.90;;;17.45;59.26
55460;BME280;41326;45.302;-122.946;2023-05-02T06:08:54;100312.27;;;17.46;59.23
55460;BME280;41326;45.302;-122.946;2023-05-02T06:11:24;100307.67;;;17.48;59.10
55460;BME280;41326;45.302;-122.946;2023-05-02T06:13:59;100302.28;;;17.45;59.17
55460;BME280;41326;45.302;-122.946;2023-05-02T06:16:25;100307.90;;;17.46;59.13
55460;BME280;41326;45.302;-122.946;2023-05-02T06:18:56;100329.18;;;17.46;59.07
55460;BME280;41326;45.302;-122.946;2023-05-02T06:21:26;100343.90;;;17.45;59.09
55460;BME280;41326;45.302;-122.946;2023-05-02T06:23:57;100357.17;;;17.43;59.15
55460;BME280;41326;45.302;-122.946;2023-05-02T06:26:27;100369.57;;;17.41;59.17
55460;BME280;41326;45.302;-122.946;2023-05-02T06:28:59;100369.97;;;17.42;59.08
55460;BME280;41326;45.302;-122.946;2023-05-02T06:32:36;100369.74;;;17.42;59.01
55460;BME280;41326;45.302;-122.946;2023-05-02T06:35:06;100382.61;;;17.38;59.06
55460;BME280;41326;45.302;-122.946;2023-05-02T06:37:38;100388.24;;;17.46;58.77
55460;BME280;41326;45.302;-122.946;2023-05-02T06:40:07;100390.56;;;17.37;59.00
55460;BME280;41326;45.302;-122.946;2023-05-02T06:42:37;100374.65;;;17.40;58.87
55460;BME280;41326;45.302;-122.946;2023-05-02T06:45:07;100353.52;;;17.37;58.92
55460;BME280;41326;45.302;-122.946;2023-05-02T06:47:37;100323.87;;;17.37;58.88
55460;BME280;41326;45.302;-122.946;2023-05-02T06:50:07;100298.26;;;17.40;58.71
55460;BME280;41326;45.302;-122.946;2023-05-02T06:52:37;100283.95;;;17.37;58.77
55460;BME280;41326;45.302;-122.946;2023-05-02T06:55:07;100279.81;;;17.34;58.85
55460;BME280;41326;45.302;-122.946;2023-05-02T06:57:38;100287.31;;;17.36;58.74
55460;BME280;41326;45.302;-122.946;2023-05-02T07:00:09;100314.73;;;17.34;58.83
55460;BME280;41326;45.302;-122.946;2023-05-02T07:02:38;100348.64;;;17.31;58.89
55460;BME280;41326;45.302;-122.946;2023-05-02T07:05:09;100369.97;;;17.37;58.68
55460;BME280;41326;45.302;-122.946;2023-05-02T07:07:39;100380.63;;;17.30;58.88
55460;BME280;41326;45.302;-122.946;2023-05-02T07:10:10;100391.05;;;17.34;58.76
55460;BME280;41326;45.302;-122.946;2023-05-02T07:12:40;100386.24;;;17.33;58.78
55460;BME280;41326;45.302;-122.946;2023-05-02T07:15:11;100371.51;;;17.33;58.75
55460;BME280;41326;45.302;-122.946;2023-05-02T07:17:41;100365.11;;;17.32;58.76
55460;BME280;41326;45.302;-122.946;2023-05-02T07:20:16;100370.02;;;17.32;58.76
55460;BME280;41326;45.302;-122.946;2023-05-02T07:22:42;100380.44;;;17.30;58.82
55460;BME280;41326;45.302;-122.946;2023-05-02T07:25:12;100359.09;;;17.30;58.81
55460;BME280;41326;45.302;-122.946;2023-05-02T07:27:43;100329.38;;;17.27;58.86
55460;BME280;41326;45.302;-122.946;2023-05-02T07:30:13;100327.90;;;17.30;58.77
55460;BME280;41326;45.302;-122.946;2023-05-02T07:32:44;100327.46;;;17.24;58.95
55460;BME280;41326;45.302;-122.946;2023-05-02T07:35:14;100301.92;;;17.29;58.72
55460;BME280;41326;45.302;-122.946;2023-05-02T07:37:44;100282.78;;;17.28;58.75
55460;BME280;41326;45.302;-122.946;2023-05-02T07:40:15;100260.58;;;17.24;58.84
55460;BME280;41326;45.302;-122.946;2023-05-02T07:42:45;100242.26;;;17.28;58.71
55460;BME280;41326;45.302;-122.946;2023-05-02T07:45:15;100236.66;;;17.27;58.73
55460;BME280;41326;45.302;-122.946;2023-05-02T07:47:46;100232.72;;;17.26;58.74
55460;BME280;41326;45.302;-122.946;2023-05-02T07:50:16;100228.49;;;17.22;58.88
55460;BME280;41326;45.302;-122.946;2023-05-02T07:52:46;100229.33;;;17.26;58.72
55460;BME280;41326;45.302;-122.946;2023-05-02T07:55:16;100250.67;;;17.22;58.86
55460;BME280;41326;45.302;-122.946;2023-05-02T07:57:47;100269.90;;;17.23;58.79
55460;BME280;41326;45.302;-122.946;2023-05-02T08:00:18;100283.89;;;17.24;58.76
55460;BME280;41326;45.302;-122.946;2023-05-02T08:02:48;100287.78;;;17.30;58.54
55460;BME280;41326;45.302;-122.946;2023-05-02T08:05:18;100316.84;;;17.26;58.63
55460;BME280;41326;45.302;-122.946;2023-05-02T08:07:48;100330.16;;;17.27;58.56
55460;BME280;41326;45.302;-122.946;2023-05-02T08:10:18;100318.43;;;17.25;58.60
55460;BME280;41326;45.302;-122.946;2023-05-02T08:12:49;100312.62;;;17.25;58.57
55460;BME280;41326;45.302;-122.946;2023-05-02T08:15:19;100314.84;;;17.20;58.72
55460;BME280;41326;45.302;-122.946;2023-05-02T08:17:50;100320.82;;;17.21;58.62
55460;BME280;41326;45.302;-122.946;2023-05-02T08:20:20;100324.87;;;17.26;58.40
55460;BME280;41326;45.302;-122.946;2023-05-02T08:22:50;100320.15;;;17.19;58.62
55460;BME280;41326;45.302;-122.946;2023-05-02T08:25:20;100298.56;;;17.17;58.68
55460;BME280;41326;45.302;-122.946;2023-05-02T08:27:50;100283.33;;;17.15;58.71
55460;BME280;41326;45.302;-122.946;2023-05-02T08:30:20;100295.02;;;17.17;58.63
55460;BME280;41326;45.302;-122.946;2023-05-02T08:32:50;100314.05;;;17.18;58.58
55460;BME280;41326;45.302;-122.946;2023-05-02T08:35:20;100320.12;;;17.16;58.63
55460;BME280;41326;45.302;-122.946;2023-05-02T08:37:51;100319.78;;;17.22;58.41
55460;BME280;41326;45.302;-122.946;2023-05-02T08:40:22;100321.08;;;17.34;58.00
55460;BME280;41326;45.302;-122.946;2023-05-02T08:42:53;100305.15;;;17.35;57.93
55460;BME280;41326;45.302;-122.946;2023-05-02T08:45:23;100292.35;;;17.31;58.06
55460;BME280;41326;45.302;-122.946;2023-05-02T08:47:54;100301.95;;;17.35;57.91
55460;BME280;41326;45.302;-122.946;2023-05-02T08:50:23;100315.75;;;17.34;57.91
55460;BME280;41326;45.302;-122.946;2023-05-02T08:52:54;100329.39;;;17.36;57.86
55460;BME280;41326;45.302;-122.946;2023-05-02T08:55:24;100337.79;;;17.32;57.95
55460;BME280;41326;45.302;-122.946;2023-05-02T08:57:55;100346.88;;;17.28;58.04
55460;BME280;41326;45.302;-122.946;2023-05-02T09:00:24;100351.28;;;17.20;58.31
55460;BME280;41326;45.302;-122.946;2023-05-02T09:03:05;100362.34;;;17.19;58.38
55460;BME280;41326;45.302;-122.946;2023-05-02T09:05:28;100356.14;;;17.12;58.57
55460;BME280;41326;45.302;-122.946;2023-05-02T09:07:56;100347.31;;;17.09;58.67
55460;BME280;41326;45.302;-122.946;2023-05-02T09:10:27;100330.76;;;17.11;58.61
55460;BME280;41326;45.302;-122.946;2023-05-02T09:12:56;100284.23;;;17.06;58.74
55460;BME280;41326;45.302;-122.946;2023-05-02T09:15:26;100225.70;;;17.08;58.59
55460;BME280;41326;45.302;-122.946;2023-05-02T09:17:57;100160.60;;;17.06;58.61
55460;BME280;41326;45.302;-122.946;2023-05-02T09:20:27;100120.83;;;17.04;58.65
55460;BME280;41326;45.302;-122.946;2023-05-02T09:22:58;100079.44;;;17.06;58.60
55460;BME280;41326;45.302;-122.946;2023-05-02T09:25:34;100067.51;;;17.02;58.68
55460;BME280;41326;45.302;-122.946;2023-05-02T09:27:59;100053.29;;;17.00;58.72
55460;BME280;41326;45.302;-122.946;2023-05-02T09:30:29;100061.99;;;17.00;58.70
55460;BME280;41326;45.302;-122.946;2023-05-02T09:32:59;100100.24;;;16.96;58.84
55460;BME280;41326;45.302;-122.946;2023-05-02T09:35:30;100162.15;;;16.98;58.76
55460;BME280;41326;45.302;-122.946;2023-05-02T09:38:01;100212.74;;;16.99;58.77
55460;BME280;41326;45.302;-122.946;2023-05-02T09:40:31;100218.48;;;16.99;58.68
55460;BME280;41326;45.302;-122.946;2023-05-02T09:45:32;100221.47;;;16.91;58.90
55460;BME280;41326;45.302;-122.946;2023-05-02T09:48:06;100227.36;;;16.92;58.85
55460;BME280;41326;45.302;-122.946;2023-05-02T09:50:37;100219.11;;;16.91;58.89
55460;BME280;41326;45.302;-122.946;2023-05-02T09:53:08;100233.86;;;16.90;58.92
55460;BME280;41326;45.302;-122.946;2023-05-02T09:55:33;100238.06;;;16.93;58.80
55460;BME280;41326;45.302;-122.946;2023-05-02T09:58:05;100234.69;;;16.95;58.69
55460;BME280;41326;45.302;-122.946;2023-05-02T10:00:39;100227.73;;;16.95;58.68
55460;BME280;41326;45.302;-122.946;2023-05-02T10:03:05;100225.44;;;16.92;58.77
55460;BME280;41326;45.302;-122.946;2023-05-02T10:05:36;100219.69;;;16.84;59.02
55460;BME280;41326;45.302;-122.946;2023-05-02T10:08:06;100220.89;;;16.91;58.75
55460;BME280;41326;45.302;-122.946;2023-05-02T10:10:38;100222.04;;;16.89;58.84
55460;BME280;41326;45.302;-122.946;2023-05-02T10:13:09;100211.36;;;16.88;58.86
55460;BME280;41326;45.302;-122.946;2023-05-02T10:15:41;100202.18;;;16.89;58.80
55460;BME280;41326;45.302;-122.946;2023-05-02T10:18:12;100193.78;;;16.87;58.91
55460;BME280;41326;45.302;-122.946;2023-05-02T10:20:42;100194.27;;;16.87;58.91
55460;BME280;41326;45.302;-122.946;2023-05-02T10:23:09;100190.40;;;16.87;58.91
55460;BME280;41326;45.302;-122.946;2023-05-02T10:25:38;100186.05;;;16.87;58.93
55460;BME280;41326;45.302;-122.946;2023-05-02T10:28:10;100186.35;;;16.84;59.02
55460;BME280;41326;45.302;-122.946;2023-05-02T10:30:40;100191.47;;;16.86;58.94
55460;BME280;41326;45.302;-122.946;2023-05-02T10:33:10;100192.15;;;16.80;59.20
55460;BME280;41326;45.302;-122.946;2023-05-02T10:38:11;100194.79;;;16.83;59.06
55460;BME280;41326;45.302;-122.946;2023-05-02T10:40:41;100184.34;;;16.88;58.92
55460;BME280;41326;45.302;-122.946;2023-05-02T10:43:13;100172.74;;;16.94;58.70
55460;BME280;41326;45.302;-122.946;2023-05-02T10:45:42;100166.72;;;16.94;58.66
55460;BME280;41326;45.302;-122.946;2023-05-02T10:48:16;100152.21;;;16.97;58.56
55460;BME280;41326;45.302;-122.946;2023-05-02T10:50:47;100140.38;;;17.02;58.39
55460;BME280;41326;45.302;-122.946;2023-05-02T10:55:43;100149.17;;;17.01;58.39
55460;BME280;41326;45.302;-122.946;2023-05-02T10:58:20;100169.97;;;16.99;58.47
55460;BME280;41326;45.302;-122.946;2023-05-02T11:00:43;100186.87;;;16.96;58.58
55460;BME280;41326;45.302;-122.946;2023-05-02T11:03:14;100205.06;;;16.91;58.78
55460;BME280;41326;45.302;-122.946;2023-05-02T11:10:45;100197.14;;;16.87;58.87
55460;BME280;41326;45.302;-122.946;2023-05-02T11:13:15;100180.99;;;16.87;58.87
55460;BME280;41326;45.302;-122.946;2023-05-02T11:18:16;100186.14;;;16.85;58.90
55460;BME280;41326;45.302;-122.946;2023-05-02T11:20:46;100190.19;;;16.81;59.03
55460;BME280;41326;45.302;-122.946;2023-05-02T11:23:21;100195.72;;;16.78;59.14
55460;BME280;41326;45.302;-122.946;2023-05-02T11:25:47;100195.06;;;16.73;59.31
55460;BME280;41326;45.302;-122.946;2023-05-02T11:30:49;100186.29;;;16.78;59.08
55460;BME280;41326;45.302;-122.946;2023-05-02T11:33:18;100193.25;;;16.70;59.32
55460;BME280;41326;45.302;-122.946;2023-05-02T11:35:49;100206.00;;;16.68;59.39
55460;BME280;41326;45.302;-122.946;2023-05-02T11:38:19;100201.92;;;16.75;59.12
55460;BME280;41326;45.302;-122.946;2023-05-02T11:40:54;100189.92;;;16.78;59.02
55460;BME280;41326;45.302;-122.946;2023-05-02T11:43:20;100170.35;;;16.80;58.91
55460;BME280;41326;45.302;-122.946;2023-05-02T11:45:50;100159.62;;;16.77;59.02
55460;BME280;41326;45.302;-122.946;2023-05-02T11:48:22;100136.89;;;16.85;58.73
55460;BME280;41326;45.302;-122.946;2023-05-02T11:50:51;100123.87;;;16.88;58.59
55460;BME280;41326;45.302;-122.946;2023-05-02T11:53:21;100128.03;;;16.87;58.67
55460;BME280;41326;45.302;-122.946;2023-05-02T11:55:53;100137.38;;;16.89;58.56
55460;BME280;41326;45.302;-122.946;2023-05-02T11:58:22;100142.04;;;16.87;58.67
55460;BME280;41326;45.302;-122.946;2023-05-02T12:00:51;100132.84;;;16.83;58.85
55460;BME280;41326;45.302;-122.946;2023-05-02T12:03:27;100124.10;;;16.81;58.88
55460;BME280;41326;45.302;-122.946;2023-05-02T12:05:52;100116.85;;;16.75;59.08
55460;BME280;41326;45.302;-122.946;2023-05-02T12:08:26;100113.68;;;16.71;59.21
55460;BME280;41326;45.302;-122.946;2023-05-02T12:10:54;100119.02;;;16.68;59.31
55460;BME280;41326;45.302;-122.946;2023-05-02T12:13:24;100117.77;;;16.66;59.37
55460;BME280;41326;45.302;-122.946;2023-05-02T12:15:54;100128.42;;;16.67;59.38
55460;BME280;41326;45.302;-122.946;2023-05-02T12:18:25;100142.20;;;16.68;59.33
55460;BME280;41326;45.302;-122.946;2023-05-02T12:20:55;100152.18;;;16.67;59.39
55460;BME280;41326;45.302;-122.946;2023-05-02T12:23:27;100152.29;;;16.64;59.50
55460;BME280;41326;45.302;-122.946;2023-05-02T12:25:57;100146.65;;;16.63;59.55
55460;BME280;41326;45.302;-122.946;2023-05-02T12:28:26;100153.29;;;16.62;59.58
55460;BME280;41326;45.302;-122.946;2023-05-02T12:30:57;100152.71;;;16.61;59.60
55460;BME280;41326;45.302;-122.946;2023-05-02T12:33:27;100149.83;;;16.55;59.83
55460;BME280;41326;45.302;-122.946;2023-05-02T12:38:28;100144.83;;;16.59;59.66
55460;BME280;41326;45.302;-122.946;2023-05-02T12:40:59;100144.90;;;16.58;59.69
55460;BME280;41326;45.302;-122.946;2023-05-02T12:46:08;100137.15;;;16.54;59.81
55460;BME280;41326;45.302;-122.946;2023-05-02T12:48:30;100129.21;;;16.56;59.76
55460;BME280;41326;45.302;-122.946;2023-05-02T12:51:00;100128.06;;;16.56;59.72
55460;BME280;41326;45.302;-122.946;2023-05-02T12:53:38;100136.75;;;16.51;59.87
55460;BME280;41326;45.302;-122.946;2023-05-02T12:56:05;100142.60;;;16.55;59.76
55460;BME280;41326;45.302;-122.946;2023-05-02T12:58:37;100153.51;;;16.62;59.51